createdAt,value
2023-08-28T00:01:53.976Z,15.30
2023-08-28T00:04:25.333Z,15.30
2023-08-28T00:06:56.008Z,15.30
2023-08-28T00:09:26.740Z,15.30
2023-08-28T00:11:58.231Z,15.30
2023-08-28T00:14:29.230Z,15.10
2023-08-28T00:16:59.931Z,15.10
2023-08-28T00:19:30.590Z,15.20
2023-08-28T00:22:01.184Z,15.20
2023-08-28T00:24:31.963Z,15.20
2023-08-28T00:27:03.481Z,15.10
2023-08-28T00:29:34.152Z,15.10
2023-08-28T00:32:05.469Z,15.10
2023-08-28T00:34:36.827Z,15.10
2023-08-28T00:37:08.344Z,15.10
2023-08-28T00:39:38.999Z,15.20
2023-08-28T00:42:09.640Z,15.20
2023-08-28T00:44:40.385Z,15.00
2023-08-28T00:47:11.995Z,15.00
2023-08-28T00:49:43.877Z,15.10
2023-08-28T00:52:15.500Z,15.10
2023-08-28T00:54:46.237Z,15.20
2023-08-28T00:57:19.551Z,15.20
2023-08-28T00:59:50.345Z,15.00
2023-08-28T01:02:21.024Z,15.00
2023-08-28T01:04:53.740Z,15.00
2023-08-28T01:07:27.248Z,15.00
2023-08-28T01:10:04.207Z,14.90
2023-08-28T01:12:38.480Z,14.90
2023-08-28T01:15:14.223Z,15.00
2023-08-28T01:17:45.793Z,15.00
2023-08-28T01:20:18.206Z,15.20
2023-08-28T01:22:53.362Z,15.20
2023-08-28T01:25:25.398Z,15.00
2023-08-28T01:27:56.815Z,15.00
2023-08-28T01:30:28.392Z,15.00
2023-08-28T01:32:59.122Z,15.00
2023-08-28T01:35:32.906Z,15.10
2023-08-28T01:38:14.139Z,15.40
2023-08-28T01:40:47.601Z,15.50
2023-08-28T01:43:22.128Z,15.40
2023-08-28T01:45:53.895Z,15.30
2023-08-28T01:48:24.972Z,15.10
2023-08-28T01:50:55.684Z,15.00
2023-08-28T01:53:27.896Z,14.90
2023-08-28T01:56:29.619Z,15.10
2023-08-28T01:59:02.932Z,15.00
2023-08-28T02:01:33.688Z,15.30
2023-08-28T02:04:04.541Z,15.10
2023-08-28T02:06:35.257Z,15.00
2023-08-28T02:09:06.269Z,15.00
2023-08-28T02:11:36.888Z,15.00
2023-08-28T02:14:07.741Z,14.90
2023-08-28T02:16:39.896Z,14.80
2023-08-28T02:19:11.178Z,14.70
2023-08-28T02:21:42.171Z,14.90
2023-08-28T02:24:14.062Z,15.00
2023-08-28T02:26:45.053Z,14.80
2023-08-28T02:29:16.017Z,14.90
2023-08-28T02:31:47.100Z,14.90
2023-08-28T02:34:18.096Z,15.00
2023-08-28T02:36:49.076Z,14.80
2023-08-28T02:39:20.301Z,15.00
2023-08-28T02:41:51.315Z,14.90
2023-08-28T02:44:22.409Z,15.00
2023-08-28T02:46:53.752Z,15.20
2023-08-28T02:49:24.795Z,15.20
2023-08-28T02:51:55.757Z,15.10
2023-08-28T02:54:26.892Z,15.20
2023-08-28T02:56:57.816Z,15.20
2023-08-28T02:59:29.677Z,15.40
2023-08-28T03:02:00.944Z,15.40
2023-08-28T03:04:32.176Z,15.40
2023-08-28T03:07:03.313Z,15.30
2023-08-28T03:09:34.400Z,15.30
2023-08-28T03:12:06.624Z,15.20
2023-08-28T03:14:37.607Z,15.10
2023-08-28T03:17:09.242Z,15.10
2023-08-28T03:19:40.242Z,15.40
2023-08-28T03:22:11.359Z,15.30
2023-08-28T03:24:42.502Z,15.20
2023-08-28T03:27:13.909Z,15.30
2023-08-28T03:29:44.936Z,15.10
2023-08-28T03:32:16.042Z,15.10
2023-08-28T03:34:47.155Z,15.20
2023-08-28T03:37:18.215Z,15.20
2023-08-28T03:39:49.403Z,15.10
2023-08-28T03:42:20.047Z,15.10
2023-08-28T03:44:50.919Z,15.20
2023-08-28T03:47:21.627Z,15.10
2023-08-28T03:49:52.622Z,15.00
2023-08-28T03:52:23.875Z,15.00
2023-08-28T03:54:55.034Z,15.00
2023-08-28T03:57:26.390Z,14.90
2023-08-28T03:59:57.718Z,14.90
2023-08-28T04:02:28.896Z,14.80
2023-08-28T04:05:07.748Z,14.80
2023-08-28T04:07:36.793Z,14.80
2023-08-28T04:10:09.505Z,14.70
2023-08-28T04:12:41.291Z,14.80
2023-08-28T04:15:14.255Z,14.80
2023-08-28T04:17:45.292Z,14.70
2023-08-28T04:20:19.044Z,14.70
2023-08-28T04:22:50.123Z,14.70
2023-08-28T04:25:21.342Z,14.80
2023-08-28T04:27:52.398Z,14.70
2023-08-28T04:30:23.500Z,14.80
2023-08-28T04:32:54.417Z,14.70
2023-08-28T04:35:25.730Z,14.60
2023-08-28T04:37:56.612Z,14.80
2023-08-28T04:40:27.435Z,14.80
2023-08-28T04:42:58.129Z,14.70
2023-08-28T04:45:28.934Z,14.50
2023-08-28T04:50:37.681Z,14.40
2023-08-28T04:53:08.701Z,14.50
2023-08-28T04:58:17.231Z,14.60
2023-08-28T05:00:48.269Z,14.40
2023-08-28T05:03:19.493Z,14.60
2023-08-28T05:05:50.570Z,14.60
2023-08-28T05:08:21.522Z,14.50
2023-08-28T05:10:52.798Z,14.60
2023-08-28T05:13:23.788Z,14.40
2023-08-28T05:15:54.697Z,14.50
2023-08-28T05:18:27.335Z,14.30
2023-08-28T05:20:58.258Z,14.40
2023-08-28T05:23:29.641Z,14.40
2023-08-28T05:26:00.684Z,14.30
2023-08-28T05:28:32.706Z,14.30
2023-08-28T05:31:03.657Z,14.40
2023-08-28T05:33:36.176Z,14.40
2023-08-28T05:36:08.213Z,14.40
2023-08-28T05:38:39.261Z,14.30
2023-08-28T05:41:10.313Z,14.30
2023-08-28T05:43:41.379Z,14.40
2023-08-28T05:46:12.532Z,14.30
2023-08-28T05:48:43.747Z,14.40
2023-08-28T05:51:15.462Z,14.40
2023-08-28T05:53:46.660Z,14.40
2023-08-28T05:56:17.735Z,14.40
2023-08-28T05:58:48.762Z,14.50
2023-08-28T06:01:19.802Z,14.40
2023-08-28T06:03:52.246Z,14.40
2023-08-28T06:06:22.981Z,14.30
2023-08-28T06:08:53.597Z,14.40
2023-08-28T06:11:24.281Z,14.40
2023-08-28T06:13:54.887Z,14.40
2023-08-28T06:16:25.597Z,14.50
2023-08-28T06:18:56.276Z,14.50
2023-08-28T06:21:27.070Z,14.50
2023-08-28T06:23:59.370Z,14.50
2023-08-28T06:26:30.854Z,14.50
2023-08-28T06:29:01.864Z,14.50
2023-08-28T06:31:32.959Z,14.50
2023-08-28T06:34:04.413Z,14.60
2023-08-28T06:36:35.263Z,14.60
2023-08-28T06:39:07.255Z,14.60
2023-08-28T06:41:38.358Z,14.70
2023-08-28T06:44:09.805Z,14.70
2023-08-28T06:46:40.553Z,14.60
2023-08-28T06:49:11.441Z,14.70
2023-08-28T06:51:42.114Z,14.70
2023-08-28T06:54:12.976Z,14.60
2023-08-28T06:56:43.608Z,14.60
2023-08-28T06:59:14.322Z,14.60
2023-08-28T07:01:44.994Z,14.60
2023-08-28T07:04:15.791Z,14.60
2023-08-28T07:06:46.473Z,14.70
2023-08-28T07:09:17.163Z,14.70
2023-08-28T07:11:48.399Z,14.70
2023-08-28T07:14:19.289Z,14.70
2023-08-28T07:16:49.919Z,14.70
2023-08-28T07:19:20.550Z,14.80
2023-08-28T07:21:51.207Z,14.80
2023-08-28T07:24:21.883Z,14.80
2023-08-28T07:26:52.545Z,14.70
2023-08-28T07:29:23.329Z,14.80
2023-08-28T07:31:54.530Z,14.80
2023-08-28T07:34:25.224Z,14.80
2023-08-28T07:36:55.809Z,14.80
2023-08-28T07:39:26.494Z,14.90
2023-08-28T07:41:58.837Z,14.80
2023-08-28T07:44:29.622Z,14.90
2023-08-28T07:47:00.969Z,15.00
2023-08-28T07:49:31.631Z,15.00
2023-08-28T07:52:02.307Z,15.00
2023-08-28T07:54:35.087Z,15.00
2023-08-28T07:57:06.034Z,15.00
2023-08-28T07:59:36.888Z,15.10
2023-08-28T08:02:09.046Z,15.10
2023-08-28T08:04:39.959Z,15.20
2023-08-28T08:07:10.606Z,15.10
2023-08-28T08:09:41.619Z,15.10
2023-08-28T08:12:13.365Z,15.20
2023-08-28T08:14:44.055Z,15.30
2023-08-28T08:17:14.700Z,15.30
2023-08-28T08:19:45.415Z,15.40
2023-08-28T08:22:16.159Z,15.50
2023-08-28T08:24:46.852Z,15.60
2023-08-28T08:27:17.519Z,15.60
2023-08-28T08:29:50.332Z,15.60
2023-08-28T08:32:21.092Z,15.70
2023-08-28T08:34:51.850Z,15.80
2023-08-28T08:37:22.550Z,15.80
2023-08-28T08:39:53.204Z,15.90
2023-08-28T08:42:24.030Z,15.80
2023-08-28T08:44:54.708Z,15.90
2023-08-28T08:47:27.005Z,16.10
2023-08-28T08:50:00.264Z,16.10
2023-08-28T08:52:31.221Z,16.10
2023-08-28T08:55:06.573Z,16.20
2023-08-28T08:57:40.538Z,16.30
2023-08-28T09:00:18.999Z,16.40
2023-08-28T09:02:50.352Z,16.60
2023-08-28T09:05:22.146Z,16.60
2023-08-28T09:07:54.471Z,16.70
2023-08-28T09:10:25.220Z,16.70
2023-08-28T09:12:55.978Z,16.80
2023-08-28T09:15:27.184Z,16.80
2023-08-28T09:17:58.092Z,16.90
2023-08-28T09:20:28.851Z,17.00
2023-08-28T09:22:59.507Z,16.90
2023-08-28T09:25:30.682Z,17.00
2023-08-28T09:28:01.502Z,17.10
2023-08-28T09:30:34.350Z,17.00
2023-08-28T09:33:07.290Z,17.00
2023-08-28T09:35:41.497Z,17.10
2023-08-28T09:38:14.144Z,17.00
2023-08-28T09:40:45.211Z,16.90
2023-08-28T09:43:17.900Z,16.90
2023-08-28T09:45:49.180Z,16.40
2023-08-28T09:48:20.034Z,16.40
2023-08-28T09:50:53.967Z,16.40
2023-08-28T09:53:26.150Z,16.30
2023-08-28T09:55:57.392Z,16.20
2023-08-28T09:58:29.924Z,15.60
2023-08-28T10:01:04.845Z,15.20
2023-08-28T10:03:36.767Z,15.20
2023-08-28T10:06:08.910Z,15.10
2023-08-28T10:08:39.817Z,14.90
2023-08-28T10:11:11.228Z,14.90
2023-08-28T10:13:43.130Z,14.90
2023-08-28T10:16:16.626Z,14.50
2023-08-28T10:21:22.207Z,14.20
2023-08-28T10:23:54.572Z,14.00
2023-08-28T10:26:28.007Z,13.90
2023-08-28T10:29:00.278Z,14.10
2023-08-28T10:31:32.980Z,14.00
2023-08-28T10:34:05.075Z,13.90
2023-08-28T10:37:00.610Z,14.00
2023-08-28T10:39:33.225Z,14.00
2023-08-28T10:42:04.594Z,14.10
2023-08-28T10:44:35.664Z,14.50
2023-08-28T10:47:06.964Z,14.70
2023-08-28T10:49:38.006Z,14.60
2023-08-28T10:52:09.805Z,14.60
2023-08-28T10:54:41.867Z,14.70
2023-08-28T10:57:23.895Z,14.80
2023-08-28T10:59:55.324Z,14.90
2023-08-28T11:02:26.120Z,14.80
2023-08-28T11:04:59.958Z,14.90
2023-08-28T11:07:46.741Z,15.00
2023-08-28T11:10:22.818Z,15.20
2023-08-28T11:12:58.176Z,15.30
2023-08-28T11:15:30.793Z,15.80
2023-08-28T11:18:29.915Z,16.20
2023-08-28T11:21:04.349Z,16.00
2023-08-28T11:23:38.240Z,15.90
2023-08-28T11:26:29.394Z,15.70
2023-08-28T11:29:00.480Z,15.60
2023-08-28T11:31:35.329Z,15.60
2023-08-28T11:34:06.246Z,15.90
2023-08-28T11:36:42.675Z,15.70
2023-08-28T11:39:24.565Z,15.40
2023-08-28T11:41:55.227Z,15.70
2023-08-28T11:44:27.539Z,16.00
2023-08-28T11:46:59.939Z,16.30
2023-08-28T11:49:31.631Z,16.20
2023-08-28T11:52:05.544Z,16.60
2023-08-28T11:54:36.608Z,17.00
2023-08-28T11:57:08.244Z,17.20
2023-08-28T11:59:39.544Z,17.40
2023-08-28T12:02:11.258Z,17.10
2023-08-28T12:04:44.321Z,16.60
2023-08-28T12:07:22.333Z,16.30
2023-08-28T12:09:56.098Z,16.60
2023-08-28T12:12:28.136Z,16.70
2023-08-28T12:14:58.960Z,16.50
2023-08-28T12:17:29.593Z,16.70
2023-08-28T12:20:00.291Z,16.70
2023-08-28T12:22:32.657Z,16.60
2023-08-28T12:25:05.226Z,16.80
2023-08-28T12:27:35.894Z,17.20
2023-08-28T12:30:09.462Z,17.10
2023-08-28T12:32:40.418Z,16.90
2023-08-28T12:35:16.581Z,16.80
2023-08-28T12:37:50.661Z,17.00
2023-08-28T12:40:21.513Z,17.20
2023-08-28T12:42:59.654Z,17.40
2023-08-28T12:45:30.393Z,17.70
2023-08-28T12:48:01.115Z,17.60
2023-08-28T12:50:31.911Z,17.60
2023-08-28T12:53:02.967Z,17.10
2023-08-28T12:55:34.166Z,17.20
2023-08-28T12:58:05.609Z,17.20
2023-08-28T13:00:36.246Z,17.40
2023-08-28T13:03:08.122Z,16.90
2023-08-28T13:05:39.352Z,16.90
2023-08-28T13:08:10.459Z,17.20
2023-08-28T13:10:41.741Z,16.90
2023-08-28T13:13:12.482Z,17.10
2023-08-28T13:15:43.816Z,17.00
2023-08-28T13:18:14.535Z,16.90
2023-08-28T13:20:45.275Z,17.10
2023-08-28T13:23:16.059Z,17.30
2023-08-28T13:25:47.046Z,17.20
2023-08-28T13:28:19.475Z,17.00
2023-08-28T13:30:50.114Z,17.20
2023-08-28T13:33:22.338Z,17.30
2023-08-28T13:35:53.762Z,17.50
2023-08-28T13:38:24.555Z,17.50
2023-08-28T13:40:55.207Z,17.30
2023-08-28T13:43:26.021Z,16.90
2023-08-28T13:45:57.185Z,16.80
2023-08-28T13:48:27.968Z,17.00
2023-08-28T13:50:58.697Z,17.00
2023-08-28T13:53:29.437Z,16.70
2023-08-28T13:56:00.288Z,16.70
2023-08-28T13:58:32.772Z,16.80
2023-08-28T14:01:04.950Z,16.80
2023-08-28T14:03:35.682Z,16.70
2023-08-28T14:06:07.690Z,16.80
2023-08-28T14:08:38.379Z,16.70
2023-08-28T14:11:09.849Z,16.90
2023-08-28T14:13:41.247Z,17.10
2023-08-28T14:16:12.031Z,16.90
2023-08-28T14:18:42.728Z,17.20
2023-08-28T14:21:13.512Z,17.30
2023-08-28T14:23:44.104Z,17.30
2023-08-28T14:26:15.016Z,17.30
2023-08-28T14:28:45.592Z,17.40
2023-08-28T14:31:16.466Z,17.20
2023-08-28T14:33:47.161Z,17.20
2023-08-28T14:36:18.979Z,17.20
2023-08-28T14:38:50.198Z,17.20
2023-08-28T14:41:22.880Z,17.40
2023-08-28T14:43:53.568Z,17.30
2023-08-28T14:46:24.353Z,17.20
2023-08-28T14:48:55.031Z,17.00
2023-08-28T14:51:25.762Z,17.00
2023-08-28T14:53:58.192Z,16.90
2023-08-28T14:56:29.696Z,16.90
2023-08-28T14:59:00.615Z,16.80
2023-08-28T15:01:31.381Z,16.70
2023-08-28T15:04:02.120Z,16.60
2023-08-28T15:09:12.507Z,16.50
2023-08-28T15:11:43.544Z,16.60
2023-08-28T15:14:14.821Z,16.60
2023-08-28T15:16:45.937Z,16.60
2023-08-28T15:19:17.035Z,16.60
2023-08-28T15:21:48.369Z,16.60
2023-08-28T15:24:19.323Z,16.60
2023-08-28T15:26:51.061Z,16.60
2023-08-28T15:29:24.091Z,16.60
2023-08-28T15:31:55.419Z,16.50
2023-08-28T15:34:26.464Z,16.60
2023-08-28T15:36:58.210Z,16.60
2023-08-28T15:39:29.586Z,16.50
2023-08-28T15:42:00.606Z,16.60
2023-08-28T15:44:31.744Z,16.60
2023-08-28T15:47:03.405Z,16.60
2023-08-28T15:49:34.808Z,16.50
2023-08-28T15:52:06.386Z,16.40
2023-08-28T15:54:39.072Z,16.30
2023-08-28T15:57:11.179Z,16.30
2023-08-28T15:59:44.994Z,16.20
2023-08-28T16:02:16.284Z,16.20
2023-08-28T16:04:48.308Z,16.20
2023-08-28T16:07:19.673Z,16.10
2023-08-28T16:09:51.436Z,16.00
2023-08-28T16:12:22.889Z,15.90
2023-08-28T16:14:54.046Z,15.80
2023-08-28T16:17:26.309Z,15.70
2023-08-28T16:19:57.652Z,15.70
2023-08-28T16:25:11.142Z,15.80
2023-08-28T16:27:43.830Z,15.90
2023-08-28T16:30:15.289Z,16.00
2023-08-28T16:32:46.044Z,16.00
2023-08-28T16:35:16.960Z,16.10
2023-08-28T16:37:47.834Z,16.00
2023-08-28T16:40:18.798Z,16.00
2023-08-28T16:42:49.566Z,16.00
2023-08-28T16:45:20.598Z,16.00
2023-08-28T16:47:52.362Z,16.10
2023-08-28T16:50:23.681Z,16.10
2023-08-28T16:52:54.817Z,16.00
2023-08-28T16:55:25.515Z,15.90
2023-08-28T16:57:56.230Z,15.80
2023-08-28T17:00:27.024Z,15.80
2023-08-28T17:02:57.923Z,15.70
2023-08-28T17:05:30.602Z,15.60
2023-08-28T17:10:38.512Z,15.50
2023-08-28T17:13:09.544Z,15.50
2023-08-28T17:15:40.874Z,15.40
2023-08-28T17:18:11.792Z,15.30
2023-08-28T17:20:42.980Z,15.00
2023-08-28T17:23:14.370Z,15.00
2023-08-28T17:25:45.709Z,14.90
2023-08-28T17:28:17.398Z,14.90
2023-08-28T17:30:48.621Z,14.90
2023-08-28T17:33:19.505Z,14.90
2023-08-28T17:35:50.360Z,14.80
2023-08-28T17:38:21.782Z,14.80
2023-08-28T17:40:52.855Z,14.80
2023-08-28T17:43:25.028Z,14.80
2023-08-28T17:45:56.070Z,14.80
2023-08-28T17:48:26.764Z,14.80
2023-08-28T17:50:58.246Z,14.80
2023-08-28T17:53:28.897Z,14.80
2023-08-28T17:55:59.940Z,14.80
2023-08-28T17:58:30.738Z,14.80
2023-08-28T18:01:01.647Z,14.80
2023-08-28T18:03:39.008Z,14.80
2023-08-28T18:06:04.932Z,14.80
2023-08-28T18:08:35.783Z,14.80
2023-08-28T18:11:06.554Z,14.80
2023-08-28T18:13:38.251Z,14.90
2023-08-28T18:16:15.175Z,14.80
2023-08-28T18:18:47.413Z,14.80
2023-08-28T18:21:19.876Z,14.70
2023-08-28T18:23:52.588Z,14.70
2023-08-28T18:26:23.609Z,14.70
2023-08-28T18:28:54.968Z,14.70
2023-08-28T18:31:27.116Z,14.70
2023-08-28T18:33:59.007Z,14.70
2023-08-28T18:36:30.620Z,14.70
2023-08-28T18:39:01.607Z,14.70
2023-08-28T18:41:33.595Z,14.70
2023-08-28T18:44:04.688Z,14.80
2023-08-28T18:46:36.513Z,14.70
2023-08-28T18:49:07.886Z,14.70
2023-08-28T18:51:38.657Z,14.70
2023-08-28T18:54:09.742Z,14.70
2023-08-28T18:56:40.394Z,14.70
2023-08-28T18:59:11.475Z,14.60
2023-08-28T19:01:42.768Z,14.60
2023-08-28T19:04:13.839Z,14.60
2023-08-28T19:06:44.575Z,14.50
2023-08-28T19:09:16.055Z,14.60
2023-08-28T19:11:47.030Z,14.60
2023-08-28T19:14:17.774Z,14.50
2023-08-28T19:19:25.386Z,14.50
2023-08-28T19:21:56.819Z,14.50
2023-08-28T19:24:28.112Z,14.50
2023-08-28T19:26:59.377Z,14.40
2023-08-28T19:29:30.513Z,14.40
2023-08-28T19:32:01.815Z,14.40
2023-08-28T19:34:33.149Z,14.40
2023-08-28T19:37:05.761Z,14.40
2023-08-28T19:39:37.606Z,14.40
2023-08-28T19:42:09.193Z,14.40
2023-08-28T19:44:40.549Z,14.40
2023-08-28T19:47:13.326Z,14.50
2023-08-28T19:49:44.604Z,14.50
2023-08-28T19:52:17.322Z,14.50
2023-08-28T19:54:50.519Z,14.50
2023-08-28T19:57:23.249Z,14.40
2023-08-28T19:59:55.358Z,14.50
2023-08-28T20:02:26.713Z,14.40
2023-08-28T20:04:58.505Z,14.40
2023-08-28T20:07:30.913Z,14.40
2023-08-28T20:10:01.696Z,14.40
2023-08-28T20:12:32.425Z,14.40
2023-08-28T20:15:03.225Z,14.40
2023-08-28T20:17:34.783Z,14.40
2023-08-28T20:20:09.995Z,14.30
2023-08-28T20:22:42.687Z,14.40
2023-08-28T20:25:13.467Z,14.40
2023-08-28T20:27:44.514Z,14.40
2023-08-28T20:32:56.535Z,14.40
2023-08-28T20:35:27.550Z,14.30
2023-08-28T20:37:58.385Z,14.30
2023-08-28T20:40:29.252Z,14.40
2023-08-28T20:43:00.362Z,14.40
2023-08-28T20:45:31.709Z,14.30
2023-08-28T20:48:02.623Z,14.40
2023-08-28T20:50:33.639Z,14.30
2023-08-28T20:53:04.785Z,14.30
2023-08-28T20:55:36.926Z,14.30
2023-08-28T20:58:08.398Z,14.30
2023-08-28T21:00:39.281Z,14.30
2023-08-28T21:03:09.973Z,14.30
2023-08-28T21:05:40.735Z,14.30
2023-08-28T21:08:30.221Z,14.30
2023-08-28T21:11:01.656Z,14.30
2023-08-28T21:13:32.996Z,14.30
2023-08-28T21:16:04.181Z,14.30
2023-08-28T21:18:35.440Z,14.30
2023-08-28T21:21:06.712Z,14.30
2023-08-28T21:23:37.922Z,14.30
2023-08-28T21:26:09.027Z,14.30
2023-08-28T21:28:40.542Z,14.30
2023-08-28T21:31:11.969Z,14.20
2023-08-28T21:33:43.039Z,14.30
2023-08-28T21:36:14.726Z,14.20
2023-08-28T21:38:47.997Z,14.30
2023-08-28T21:41:19.004Z,14.30
2023-08-28T21:43:51.523Z,14.20
2023-08-28T21:46:22.697Z,14.20
2023-08-28T21:48:53.710Z,14.10
2023-08-28T21:51:24.992Z,14.00
2023-08-28T21:53:56.086Z,13.90
2023-08-28T21:56:27.068Z,13.90
2023-08-28T21:58:57.816Z,13.90
2023-08-28T22:01:28.823Z,13.80
2023-08-28T22:04:00.550Z,13.80
2023-08-28T22:06:31.828Z,13.70
2023-08-28T22:09:03.062Z,13.70
2023-08-28T22:11:34.639Z,13.60
2023-08-28T22:14:05.709Z,13.60
2023-08-28T22:16:36.910Z,13.60
2023-08-28T22:19:08.349Z,13.60
2023-08-28T22:21:39.634Z,13.60
2023-08-28T22:24:11.587Z,13.60
2023-08-28T22:26:42.991Z,13.70
2023-08-28T22:29:14.214Z,13.60
2023-08-28T22:31:45.592Z,13.70
2023-08-28T22:34:17.368Z,13.60
2023-08-28T22:36:48.734Z,13.60
2023-08-28T22:39:19.778Z,13.60
2023-08-28T22:41:51.643Z,13.60
2023-08-28T22:44:22.780Z,13.50
2023-08-28T22:46:53.887Z,13.50
2023-08-28T22:49:25.765Z,13.50
2023-08-28T22:51:59.159Z,13.50
2023-08-28T22:54:30.273Z,13.40
2023-08-28T22:57:01.264Z,13.40
2023-08-28T22:59:32.565Z,13.40
2023-08-28T23:02:04.567Z,13.40
2023-08-28T23:04:37.420Z,13.40
2023-08-28T23:07:08.836Z,13.40
2023-08-28T23:09:39.936Z,13.30
2023-08-28T23:12:11.732Z,13.30
2023-08-28T23:14:42.910Z,13.20
2023-08-28T23:17:14.509Z,13.20
2023-08-28T23:19:45.879Z,13.20
2023-08-28T23:22:16.882Z,13.20
2023-08-28T23:24:48.896Z,13.20
2023-08-28T23:27:20.962Z,13.20
2023-08-28T23:29:52.402Z,13.20
2023-08-28T23:32:23.324Z,13.20
2023-08-28T23:34:54.386Z,13.20
2023-08-28T23:37:25.475Z,13.30
2023-08-28T23:39:56.538Z,13.40
2023-08-28T23:42:28.222Z,13.40
2023-08-28T23:44:59.335Z,13.50
2023-08-28T23:47:30.491Z,13.50
2023-08-28T23:50:02.552Z,13.50
2023-08-28T23:52:33.696Z,13.50
2023-08-28T23:55:05.184Z,13.60
2023-08-28T23:57:36.313Z,13.60
